首页
METAR-TAF:

METAR-TAF

机场 :

诺曼·曼利国际机场

京斯敦, 牙买加

纬度: 17-56N, 经度: 076-47W, 海拔: 3米

当前天气观测

该预报发布于34分钟前的09:00 UTC
风速5节,风向
温度 28°C
湿度 70%
气压 1010 hPa

METAR: MKJP 190900Z 35005KT //// ////// 28/22 Q1010

时间: 04:34 (09:34 UTC)

预报

该预报发布于4小时和19分钟前的05:15 UTC
预报有效从19日的 06点(UTC)到 20日的 06点(UTC)
风速5节,风向
能见度10公里或以上
少量云层高于2200英尺
成为
从 19日的 13点(UTC)到 19日的 15点(UTC)
风速15节,风向东南
几率 30% :
短暂存在
从 19日的 18点(UTC)到 19日的 24点(UTC)
能見度: 7000
散云层高于2000英尺
散云层高于2200英尺, 积雨云.
雷暴, 雨
成为
从 20日的 03点(UTC)到 20日的 05点(UTC)
风速6节,风向北转东北

TAF: MKJP 190515Z 1906/2006 35005KT 9999 FEW022 BECMG 1913/1915 14015KT PROB30 TEMPO 1918/1924 7000 TSRA SCT020 SCT022CB BECMG 2003/2005 02006KT

超过4000个机场的气象观测和天气预报(METAR&TAF报告)。

可查询的气象台以黄色和红色小点在地图上表示。

将鼠标移到小点上方,可查看气象台名称。

然后点击查看天气观测和预报。

如需切换地图:点击带黑十字的绿色按钮放大地图;点击带横线的绿色按钮缩小地图;或者点击绿色箭头查看邻近地区的地图。


METAR-TAF: